Time;durP1;ratioP1;P1;durP2;ratioP2;P2;SDS_P1;SDS_P2;PMS_P1;PMS_P2;Temp;Humidity;BMP_temperature;BMP_pressure;BME280_temperature;BME280_humidity;BME280_pressure;Samples;Min_cycle;Max_cycle;Signal;HPM_P1;HPM_P2
2022/03/24 00:00:08;;;;;;;;;;;9.30;73.90;9.30;100647.00;;;;340004;28;91338;-87
2022/03/24 00:00:20;;;;;;;;;;;9.30;73.90;9.40;100645.00;;;;339629;28;83478;-88
2022/03/24 00:00:32;;;;;;;;;;;9.30;74.00;9.60;100636.00;;;;339691;28;91931;-88
2022/03/24 00:00:44;;;;;;;;;;;9.30;74.10;9.70;100640.00;;;;340486;28;83308;-88
2022/03/24 00:00:56;;;;;;;;;;;9.30;74.10;9.80;100645.00;;;;341532;28;90652;-88
2022/03/24 00:01:08;;;;;;;;;;;9.30;73.90;9.70;100633.00;;;;339077;28;82381;-87
2022/03/24 00:01:21;;;;;;;;;;;9.30;73.90;9.80;100642.00;;;;338570;28;92043;-87
2022/03/24 00:01:33;;;;;;;;;;;9.30;73.80;9.70;100630.00;;;;337903;28;83480;-87
2022/03/24 00:01:44;;;;;;;;;;;9.30;74.00;9.50;100639.00;;;;337488;28;91838;-87
2022/03/24 00:01:57;;;;;;;;;;;9.30;74.20;9.60;100637.00;;;;339078;28;83486;-87
2022/03/24 00:02:09;;;;;;;;;;;9.30;73.90;9.70;100637.00;;;;338589;28;92953;-88
2022/03/24 00:02:20;;;;;;;;;;;9.30;74.00;9.70;100638.00;;;;338695;28;83774;-87
2022/03/24 00:02:33;;;;;;;;;;;9.30;74.00;9.70;100640.00;;;;342599;28;90050;-87
2022/03/24 00:02:45;;;;;;;;;;;9.30;73.80;9.80;100635.00;;;;346274;28;83347;-87
2022/03/24 00:02:57;;;;;;;;;;;9.30;73.80;9.70;100636.00;;;;343068;28;91323;-88
2022/03/24 00:03:09;;;;;;;;;;;9.30;73.80;9.80;100640.00;;;;336430;28;82593;-87
2022/03/24 00:03:23;;;;;;;;;;;9.30;73.80;9.60;100645.00;;;;337328;28;88312;-88
2022/03/24 00:03:37;;;;;;;;;;;9.30;73.90;9.50;100640.00;;;;340533;28;83408;-87
2022/03/24 00:03:49;;;;;;;;;;;9.30;74.10;9.60;100640.00;;;;337396;28;91934;-87
2022/03/24 00:04:01;;;;;;;;;;;9.30;74.10;9.60;100638.00;;;;339104;28;83256;-87
2022/03/24 00:04:13;;;;;;;;;;;9.30;74.10;9.60;100638.00;;;;337358;28;90305;-87
2022/03/24 00:04:25;;;;;;;;;;;9.20;74.10;9.40;100635.00;;;;336304;28;82460;-87
2022/03/24 00:04:37;;;;;;;;;;;9.20;74.80;9.50;100640.00;;;;340082;28;91293;-87
2022/03/24 00:04:49;;;;;;;;;;;9.20;74.30;9.50;100638.00;;;;340379;28;82482;-87
2022/03/24 00:05:01;;;;;;;;;;;9.20;74.10;9.60;100639.00;;;;340137;28;88236;-87
2022/03/24 00:05:13;;;;;;;;;;;9.20;74.00;9.70;100635.00;;;;340235;28;83570;-87
2022/03/24 00:05:25;;;;;;;;;;;9.20;74.10;9.70;100638.00;;;;339857;28;92308;-87
2022/03/24 00:05:36;;;;;;;;;;;9.20;74.00;9.80;100639.00;;;;345659;28;82678;-88
2022/03/24 00:05:48;;;;;;;;;;;9.20;74.20;9.70;100636.00;;;;341864;28;91504;-87
2022/03/24 00:06:00;;;;;;;;;;;9.20;74.30;9.70;100636.00;;;;336476;28;83504;-87
2022/03/24 00:06:12;;;;;;;;;;;9.20;74.50;9.80;100642.00;;;;339942;28;93123;-88
2022/03/24 00:06:24;;;;;;;;;;;9.20;74.40;9.80;100642.00;;;;341637;28;83562;-87
2022/03/24 00:06:37;;;;;;;;;;;9.20;74.30;9.80;100642.00;;;;338737;28;91281;-87
2022/03/24 00:06:49;;;;;;;;;;;9.20;74.30;9.70;100631.00;;;;339119;28;82554;-87
2022/03/24 00:07:00;;;;;;;;;;;9.20;74.40;9.80;100640.00;;;;340081;28;91584;-87
2022/03/24 00:07:12;;;;;;;;;;;9.20;74.40;9.80;100644.00;;;;339156;28;83218;-87
2022/03/24 00:07:24;;;;;;;;;;;9.20;74.30;9.80;100651.00;;;;345636;28;92708;-87
2022/03/24 00:07:36;;;;;;;;;;;9.20;74.00;9.70;100639.00;;;;346272;28;83288;-87
2022/03/24 00:07:47;;;;;;;;;;;9.20;73.90;9.80;100636.00;;;;339981;28;90219;-87
2022/03/24 00:07:59;;;;;;;;;;;9.20;73.90;9.70;100637.00;;;;340360;28;83405;-87
2022/03/24 00:08:12;;;;;;;;;;;9.20;74.00;9.60;100634.00;;;;339715;28;92422;-87
2022/03/24 00:08:24;;;;;;;;;;;9.20;74.40;9.40;100634.00;;;;340104;28;82644;-88
2022/03/24 00:08:35;;;;;;;;;;;9.20;74.50;9.40;100634.00;;;;347134;27;90330;-88
2022/03/24 00:08:47;;;;;;;;;;;9.20;74.50;9.60;100636.00;;;;344605;28;84161;-88
2022/03/24 00:08:59;;;;;;;;;;;9.20;74.30;9.60;100642.00;;;;336062;28;92208;-87
2022/03/24 00:09:11;;;;;;;;;;;9.20;74.40;9.70;100636.00;;;;337814;28;83381;-87
2022/03/24 00:09:23;;;;;;;;;;;9.10;74.30;9.70;100634.00;;;;337092;28;92177;-87
2022/03/24 00:09:35;;;;;;;;;;;9.20;74.60;9.70;100632.00;;;;337831;28;83330;-87
2022/03/24 00:09:46;;;;;;;;;;;9.20;74.60;9.70;100630.00;;;;337401;28;90998;-87
2022/03/24 00:09:58;;;;;;;;;;;9.20;74.60;9.70;100633.00;;;;337825;28;82563;-87
2022/03/24 00:10:10;;;;;;;;;;;9.20;74.50;9.70;100634.00;;;;338680;28;92634;-87
2022/03/24 00:10:23;;;;;;;;;;;9.20;74.50;9.70;100637.00;;;;337777;28;82430;-88
2022/03/24 00:10:36;;;;;;;;;;;9.20;74.40;9.80;100631.00;;;;338522;28;89300;-88
2022/03/24 00:10:47;;;;;;;;;;;9.20;74.30;9.70;100634.00;;;;339184;28;83440;-87
2022/03/24 00:11:00;;;;;;;;;;;9.20;74.30;9.70;100633.00;;;;341479;28;87994;-87
2022/03/24 00:11:12;;;;;;;;;;;9.20;74.10;9.70;100624.00;;;;336314;28;82458;-88
2022/03/24 00:11:24;;;;;;;;;;;9.20;73.90;9.60;100636.00;;;;341362;28;91246;-87
2022/03/24 00:11:36;;;;;;;;;;;9.20;74.00;9.60;100638.00;;;;340469;28;82463;-87
2022/03/24 00:11:48;;;;;;;;;;;9.20;74.10;9.60;100631.00;;;;340107;28;88817;-88
2022/03/24 00:11:59;;;;;;;;;;;9.20;74.20;9.50;100636.00;;;;341669;28;83515;-88
2022/03/24 00:12:12;;;;;;;;;;;9.20;74.30;9.60;100632.00;;;;340044;28;92728;-87
2022/03/24 00:12:24;;;;;;;;;;;9.20;74.00;9.50;100632.00;;;;338946;28;83521;-87
2022/03/24 00:12:36;;;;;;;;;;;9.20;74.00;9.50;100630.00;;;;340030;28;91745;-87
2022/03/24 00:12:48;;;;;;;;;;;9.20;74.30;9.60;100624.00;;;;341811;28;82514;-88
2022/03/24 00:12:59;;;;;;;;;;;9.10;74.10;9.70;100629.00;;;;338662;28;92620;-87
2022/03/24 00:13:11;;;;;;;;;;;9.20;74.30;9.70;100631.00;;;;339138;28;83408;-88
2022/03/24 00:13:23;;;;;;;;;;;9.10;74.10;9.50;100624.00;;;;337417;28;89175;-87
2022/03/24 00:13:36;;;;;;;;;;;9.10;74.20;9.40;100630.00;;;;338876;28;83600;-87
2022/03/24 00:13:48;;;;;;;;;;;9.10;74.50;9.30;100638.00;;;;338721;28;91460;-88
2022/03/24 00:14:00;;;;;;;;;;;9.10;75.60;9.30;100629.00;;;;339139;28;83342;-88
2022/03/24 00:14:12;;;;;;;;;;;9.10;75.10;9.20;100631.00;;;;337352;28;92833;-87
2022/03/24 00:14:23;;;;;;;;;;;9.10;75.10;9.20;100637.00;;;;341413;28;83498;-87
2022/03/24 00:14:35;;;;;;;;;;;9.10;75.10;9.10;100626.00;;;;344427;28;91358;-87
2022/03/24 00:14:47;;;;;;;;;;;9.10;75.10;9.10;100638.00;;;;343178;28;83465;-87
2022/03/24 00:14:59;;;;;;;;;;;9.00;75.00;9.30;100630.00;;;;338754;28;91624;-88
2022/03/24 00:15:11;;;;;;;;;;;9.00;74.90;9.30;100628.00;;;;339082;28;83399;-87
2022/03/24 00:15:23;;;;;;;;;;;9.00;75.00;9.30;100637.00;;;;339881;28;91545;-87
2022/03/24 00:15:35;;;;;;;;;;;9.00;74.80;9.20;100634.00;;;;339170;28;83611;-88
2022/03/24 00:15:47;;;;;;;;;;;9.00;74.90;9.20;100627.00;;;;340118;28;91020;-87
2022/03/24 00:15:58;;;;;;;;;;;9.00;75.40;9.10;100631.00;;;;337832;28;82582;-87
2022/03/24 00:16:10;;;;;;;;;;;9.00;75.40;9.10;100639.00;;;;337311;28;92263;-87
2022/03/24 00:16:22;;;;;;;;;;;8.90;75.40;9.20;100622.00;;;;337822;28;83474;-87
2022/03/24 00:16:34;;;;;;;;;;;8.90;75.70;9.20;100631.00;;;;338618;28;91502;-87
2022/03/24 00:16:46;;;;;;;;;;;8.90;75.50;9.10;100642.00;;;;339023;28;83475;-87
2022/03/24 00:16:58;;;;;;;;;;;8.90;75.70;9.10;100626.00;;;;338776;28;88887;-87
2022/03/24 00:17:10;;;;;;;;;;;8.90;75.60;9.10;100630.00;;;;346115;28;83390;-88
2022/03/24 00:17:22;;;;;;;;;;;8.90;75.60;9.30;100633.00;;;;344946;28;91598;-87
2022/03/24 00:17:33;;;;;;;;;;;8.80;75.00;9.40;100634.00;;;;341251;28;84065;-87
2022/03/24 00:17:45;;;;;;;;;;;8.80;74.70;9.30;100636.00;;;;344141;28;90335;-87
2022/03/24 00:17:57;;;;;;;;;;;8.80;75.00;9.10;100631.00;;;;343349;28;83486;-87
2022/03/24 00:18:09;;;;;;;;;;;8.80;75.00;9.10;100637.00;;;;344133;28;93507;-87
2022/03/24 00:18:21;;;;;;;;;;;8.80;75.30;9.10;100629.00;;;;340355;28;82571;-87
2022/03/24 00:18:34;;;;;;;;;;;8.80;75.30;9.00;100638.00;;;;339941;28;92747;-87
2022/03/24 00:18:46;;;;;;;;;;;8.80;75.30;9.10;100634.00;;;;337758;28;83279;-88
2022/03/24 00:18:59;;;;;;;;;;;8.80;75.50;9.20;100629.00;;;;338741;28;90482;-87
2022/03/24 00:19:11;;;;;;;;;;;8.80;75.50;9.30;100632.00;;;;339235;28;82422;-88
2022/03/24 00:19:22;;;;;;;;;;;8.80;75.50;9.40;100634.00;;;;337259;28;91725;-87
2022/03/24 00:19:34;;;;;;;;;;;8.80;75.50;9.40;100627.00;;;;339179;28;83428;-87
2022/03/24 00:19:46;;;;;;;;;;;8.80;75.60;9.50;100633.00;;;;338702;28;91530;-87
2022/03/24 00:19:58;;;;;;;;;;;8.80;75.60;9.40;100633.00;;;;337750;28;83398;-87
2022/03/24 00:20:12;;;;;;;;;;;8.80;75.80;9.30;100632.00;;;;337154;28;89811;-87
2022/03/24 00:20:25;;;;;;;;;;;8.80;75.50;9.30;100627.00;;;;343145;28;82481;-87
2022/03/24 00:20:37;;;;;;;;;;;8.80;75.50;9.30;100636.00;;;;345451;28;91451;-87
2022/03/24 00:20:49;;;;;;;;;;;8.80;75.70;9.40;100631.00;;;;347485;28;83371;-87
2022/03/24 00:21:02;;;;;;;;;;;8.80;75.60;9.40;100635.00;;;;347102;28;91546;-88
2022/03/24 00:21:14;;;;;;;;;;;8.80;75.40;9.30;100635.00;;;;346141;28;83395;-88
2022/03/24 00:21:26;;;;;;;;;;;8.80;75.40;9.40;100633.00;;;;346952;28;91751;-87
2022/03/24 00:21:38;;;;;;;;;;;8.80;75.50;9.40;100636.00;;;;347420;28;83500;-87
2022/03/24 00:21:50;;;;;;;;;;;8.80;76.10;9.50;100633.00;;;;345732;28;90725;-87
2022/03/24 00:22:03;;;;;;;;;;;8.80;75.40;9.50;100633.00;;;;347255;28;83498;-87
2022/03/24 00:22:15;;;;;;;;;;;8.80;75.40;9.50;100629.00;;;;347065;28;90076;-87
2022/03/24 00:22:27;;;;;;;;;;;8.90;75.50;9.50;100634.00;;;;347497;28;82534;-87
2022/03/24 00:22:39;;;;;;;;;;;8.90;75.40;9.50;100632.00;;;;348442;27;91250;-87
2022/03/24 00:22:51;;;;;;;;;;;8.90;75.50;9.50;100624.00;;;;347420;28;83559;-87
2022/03/24 00:23:03;;;;;;;;;;;8.90;75.70;9.50;100634.00;;;;347130;28;87695;-87
2022/03/24 00:23:15;;;;;;;;;;;8.90;75.90;9.40;100631.00;;;;351114;27;82579;-87
2022/03/24 00:23:32;;;;;;;;;;;8.80;75.80;9.40;100632.00;;;;344845;28;91502;-87
2022/03/24 00:23:44;;;;;;;;;;;8.80;75.80;9.40;100627.00;;;;347145;28;84006;-88
2022/03/24 00:23:56;;;;;;;;;;;8.80;75.60;9.30;100631.00;;;;345522;28;92104;-88
2022/03/24 00:24:08;;;;;;;;;;;8.80;75.50;9.20;100631.00;;;;346084;28;82519;-87
2022/03/24 00:24:19;;;;;;;;;;;8.80;75.50;9.10;100623.00;;;;344934;28;90693;-87
2022/03/24 00:24:31;;;;;;;;;;;8.80;75.70;9.00;100629.00;;;;346046;28;83274;-87
2022/03/24 00:24:43;;;;;;;;;;;8.80;75.80;9.20;100625.00;;;;345725;28;89176;-88
2022/03/24 00:24:55;;;;;;;;;;;8.80;76.00;9.30;100636.00;;;;346186;28;83438;-87
2022/03/24 00:25:07;;;;;;;;;;;8.80;76.00;9.30;100628.00;;;;348474;27;91094;-88
2022/03/24 00:25:19;;;;;;;;;;;8.80;76.00;9.30;100623.00;;;;347416;28;83510;-87
2022/03/24 00:25:31;;;;;;;;;;;8.80;76.10;9.40;100632.00;;;;345710;28;90291;-87
2022/03/24 00:25:43;;;;;;;;;;;8.80;76.10;9.40;100623.00;;;;347463;28;83617;-87
2022/03/24 00:25:55;;;;;;;;;;;8.80;76.10;9.40;100621.00;;;;344247;28;91629;-87
2022/03/24 00:26:07;;;;;;;;;;;8.90;75.90;9.30;100626.00;;;;348930;27;83501;-87
2022/03/24 00:26:18;;;;;;;;;;;8.80;75.80;9.20;100616.00;;;;347496;27;90026;-88
2022/03/24 00:26:30;;;;;;;;;;;8.80;76.10;9.10;100624.00;;;;345146;28;83262;-88
2022/03/24 00:26:42;;;;;;;;;;;8.80;76.00;9.00;100618.00;;;;345659;28;89767;-87
2022/03/24 00:26:54;;;;;;;;;;;8.80;76.10;8.90;100624.00;;;;344484;28;83307;-88
2022/03/24 00:27:05;;;;;;;;;;;8.80;76.20;9.00;100626.00;;;;344289;28;92435;-88
2022/03/24 00:27:17;;;;;;;;;;;8.80;76.40;9.00;100633.00;;;;347733;27;82453;-87
2022/03/24 00:27:29;;;;;;;;;;;8.80;76.40;8.90;100630.00;;;;345630;28;92198;-88
2022/03/24 00:27:41;;;;;;;;;;;8.80;76.40;9.10;100621.00;;;;346044;28;83495;-87
2022/03/24 00:27:53;;;;;;;;;;;8.70;76.40;9.20;100620.00;;;;347040;28;91848;-87
2022/03/24 00:28:06;;;;;;;;;;;8.70;76.10;9.20;100625.00;;;;346132;28;83293;-87
2022/03/24 00:28:17;;;;;;;;;;;8.80;75.80;9.20;100619.00;;;;347116;28;89800;-88
2022/03/24 00:28:33;;;;;;;;;;;8.70;75.80;9.20;100622.00;;;;346030;28;83455;-87
2022/03/24 00:28:45;;;;;;;;;;;8.80;75.70;9.20;100621.00;;;;347008;27;91322;-87
2022/03/24 00:28:57;;;;;;;;;;;8.80;76.10;9.10;100623.00;;;;344795;28;83453;-88
2022/03/24 00:29:09;;;;;;;;;;;8.70;76.00;9.00;100624.00;;;;345674;28;92163;-87
2022/03/24 00:29:21;;;;;;;;;;;8.70;76.30;9.10;100618.00;;;;348341;27;82651;-87
2022/03/24 00:29:33;;;;;;;;;;;8.70;76.60;9.00;100617.00;;;;347614;27;88848;-87
2022/03/24 00:29:45;;;;;;;;;;;8.70;76.30;9.00;100624.00;;;;347106;28;83499;-87
2022/03/24 00:29:57;;;;;;;;;;;8.70;76.30;9.10;100622.00;;;;346968;28;92049;-87
2022/03/24 00:30:09;;;;;;;;;;;8.70;76.10;9.20;100618.00;;;;348930;27;83337;-88
2022/03/24 00:30:21;;;;;;;;;;;8.70;75.80;9.20;100615.00;;;;344938;28;91447;-87
2022/03/24 00:30:33;;;;;;;;;;;8.70;75.60;9.20;100626.00;;;;346065;28;83391;-88
2022/03/24 00:30:45;;;;;;;;;;;8.70;75.50;9.20;100610.00;;;;348114;27;92159;-87
2022/03/24 00:30:57;;;;;;;;;;;8.70;75.50;9.30;100621.00;;;;346151;28;83339;-87
2022/03/24 00:31:09;;;;;;;;;;;8.70;75.50;9.30;100615.00;;;;347023;28;91386;-87
2022/03/24 00:31:21;;;;;;;;;;;8.70;75.50;9.30;100625.00;;;;348780;27;83426;-87
2022/03/24 00:31:33;;;;;;;;;;;8.70;75.50;9.20;100618.00;;;;348411;27;91617;-87
2022/03/24 00:31:46;;;;;;;;;;;8.70;75.80;9.20;100620.00;;;;344631;28;83509;-87
2022/03/24 00:31:58;;;;;;;;;;;8.70;76.10;9.30;100623.00;;;;344317;28;89282;-87
2022/03/24 00:32:09;;;;;;;;;;;8.70;76.10;9.30;100613.00;;;;346096;28;83427;-87
2022/03/24 00:32:21;;;;;;;;;;;8.70;76.30;9.20;100628.00;;;;345023;28;92499;-87
2022/03/24 00:32:34;;;;;;;;;;;8.70;76.60;9.10;100620.00;;;;348680;27;83473;-87
2022/03/24 00:32:46;;;;;;;;;;;8.70;76.80;9.10;100617.00;;;;346927;28;90706;-87
2022/03/24 00:32:57;;;;;;;;;;;8.70;77.60;9.20;100620.00;;;;344765;28;83410;-87
2022/03/24 00:33:10;;;;;;;;;;;8.70;76.50;9.10;100616.00;;;;347103;28;89074;-87
2022/03/24 00:33:22;;;;;;;;;;;8.60;76.90;9.00;100626.00;;;;347401;27;83379;-87
2022/03/24 00:33:34;;;;;;;;;;;8.60;77.30;9.00;100621.00;;;;347035;28;91198;-87
2022/03/24 00:33:46;;;;;;;;;;;8.70;77.00;8.90;100611.00;;;;344703;28;83524;-87
2022/03/24 00:33:58;;;;;;;;;;;8.60;76.90;9.00;100614.00;;;;346770;28;90534;-88
2022/03/24 00:34:10;;;;;;;;;;;8.60;76.70;9.00;100619.00;;;;347454;27;83582;-87
2022/03/24 00:34:22;;;;;;;;;;;8.60;76.80;9.00;100625.00;;;;345528;28;92479;-87
2022/03/24 00:34:34;;;;;;;;;;;8.60;76.80;9.00;100623.00;;;;348842;27;83453;-87
2022/03/24 00:34:46;;;;;;;;;;;8.60;77.00;9.00;100622.00;;;;344213;28;90364;-88
2022/03/24 00:34:58;;;;;;;;;;;8.60;77.10;9.00;100620.00;;;;347609;28;83278;-87
2022/03/24 00:35:10;;;;;;;;;;;8.60;77.00;9.10;100617.00;;;;347059;28;92056;-88
2022/03/24 00:35:23;;;;;;;;;;;8.60;76.80;9.10;100621.00;;;;346994;28;82554;-87
2022/03/24 00:35:35;;;;;;;;;;;8.60;76.60;9.20;100615.00;;;;348347;27;92305;-87
2022/03/24 00:35:47;;;;;;;;;;;8.60;76.60;9.10;100616.00;;;;347312;28;83486;-87
2022/03/24 00:35:58;;;;;;;;;;;8.60;76.70;9.20;100626.00;;;;345641;28;92377;-87
2022/03/24 00:36:11;;;;;;;;;;;8.60;76.70;9.20;100618.00;;;;344718;28;82398;-87
2022/03/24 00:36:23;;;;;;;;;;;8.60;76.80;9.20;100622.00;;;;345489;28;92723;-87
2022/03/24 00:36:35;;;;;;;;;;;8.60;77.00;9.20;100618.00;;;;344297;28;82528;-87
2022/03/24 00:36:47;;;;;;;;;;;8.60;76.90;9.30;100616.00;;;;347019;28;91525;-88
2022/03/24 00:36:59;;;;;;;;;;;8.60;76.80;9.30;100620.00;;;;347597;28;83426;-87
2022/03/24 00:37:10;;;;;;;;;;;8.60;77.10;9.20;100625.00;;;;345720;28;91453;-87
2022/03/24 00:37:22;;;;;;;;;;;8.60;77.20;9.20;100611.00;;;;347371;27;82500;-87
2022/03/24 00:37:34;;;;;;;;;;;8.60;77.00;9.30;100605.00;;;;345690;28;89138;-87
2022/03/24 00:37:46;;;;;;;;;;;8.60;76.90;9.30;100615.00;;;;346121;28;83319;-87
2022/03/24 00:37:58;;;;;;;;;;;8.60;77.00;9.30;100626.00;;;;345746;28;88799;-87
2022/03/24 00:38:10;;;;;;;;;;;8.60;76.90;9.30;100614.00;;;;347442;28;83578;-87
2022/03/24 00:38:21;;;;;;;;;;;8.60;77.00;9.30;100618.00;;;;345019;28;92446;-87
2022/03/24 00:38:34;;;;;;;;;;;8.60;77.00;9.40;100620.00;;;;345917;28;83397;-87
2022/03/24 00:38:46;;;;;;;;;;;8.60;77.10;9.20;100616.00;;;;343874;28;91676;-87
2022/03/24 00:38:58;;;;;;;;;;;8.60;77.30;9.20;100619.00;;;;346119;28;82503;-87
2022/03/24 00:39:10;;;;;;;;;;;8.60;77.20;9.20;100619.00;;;;346999;28;92231;-88
2022/03/24 00:39:21;;;;;;;;;;;8.60;76.90;9.10;100620.00;;;;348262;27;83502;-87
2022/03/24 00:39:34;;;;;;;;;;;8.60;77.20;9.00;100625.00;;;;345744;28;89098;-87
2022/03/24 00:39:48;;;;;;;;;;;8.60;77.60;9.00;100617.00;;;;347459;28;83410;-87
2022/03/24 00:40:07;;;;;;;;;;;8.60;77.60;9.10;100613.00;;;;348444;27;90196;-88
2022/03/24 00:40:19;;;;;;;;;;;8.60;77.40;9.10;100621.00;;;;348859;27;82498;-88
2022/03/24 00:40:31;;;;;;;;;;;8.60;77.20;9.20;100616.00;;;;349807;27;92130;-88
2022/03/24 00:40:43;;;;;;;;;;;8.60;76.80;9.20;100612.00;;;;347345;28;83343;-88
2022/03/24 00:40:56;;;;;;;;;;;8.60;76.90;9.20;100613.00;;;;348562;27;87980;-87
2022/03/24 00:41:07;;;;;;;;;;;8.60;77.00;9.30;100618.00;;;;347405;28;83470;-87
2022/03/24 00:41:19;;;;;;;;;;;8.60;77.10;9.20;100616.00;;;;345990;28;92456;-87
2022/03/24 00:41:31;;;;;;;;;;;8.60;77.40;9.10;100609.00;;;;347381;28;82523;-87
2022/03/24 00:41:43;;;;;;;;;;;8.60;77.40;9.20;100617.00;;;;345538;28;92000;-87
2022/03/24 00:41:55;;;;;;;;;;;8.60;77.10;9.00;100615.00;;;;344461;28;83393;-87
2022/03/24 00:42:09;;;;;;;;;;;8.60;77.20;9.10;100621.00;;;;346913;28;88680;-88
2022/03/24 00:42:22;;;;;;;;;;;8.60;77.30;9.20;100614.00;;;;345999;28;83449;-88
2022/03/24 00:42:36;;;;;;;;;;;8.60;77.10;9.10;100613.00;;;;345513;28;93041;-88
2022/03/24 00:42:48;;;;;;;;;;;8.60;77.50;9.20;100619.00;;;;348828;27;84116;-88
2022/03/24 00:43:00;;;;;;;;;;;8.60;77.20;9.10;100612.00;;;;345663;28;91575;-87
2022/03/24 00:43:12;;;;;;;;;;;8.60;77.30;9.20;100617.00;;;;346002;28;83489;-88
2022/03/24 00:43:24;;;;;;;;;;;8.60;76.90;9.20;100622.00;;;;345597;28;92210;-87
2022/03/24 00:43:36;;;;;;;;;;;8.60;76.70;9.10;100621.00;;;;346074;28;83465;-87
2022/03/24 00:43:48;;;;;;;;;;;8.60;76.60;9.10;100614.00;;;;345668;28;91627;-87
2022/03/24 00:44:02;;;;;;;;;;;8.60;76.60;9.00;100619.00;;;;348827;27;82553;-87
2022/03/24 00:44:14;;;;;;;;;;;8.60;77.00;9.00;100615.00;;;;348172;27;88696;-87
2022/03/24 00:44:26;;;;;;;;;;;8.60;77.50;9.00;100613.00;;;;346975;28;83440;-87
2022/03/24 00:44:42;;;;;;;;;;;8.60;77.40;9.00;100615.00;;;;345617;28;88756;-87
2022/03/24 00:44:54;;;;;;;;;;;8.60;77.50;9.10;100608.00;;;;347194;28;82550;-87
2022/03/24 00:45:06;;;;;;;;;;;8.60;77.20;9.20;100618.00;;;;345574;28;91858;-88
2022/03/24 00:45:19;;;;;;;;;;;8.60;77.20;9.10;100612.00;;;;349318;27;83235;-88
2022/03/24 00:45:30;;;;;;;;;;;8.60;77.10;9.10;100622.00;;;;345761;28;88772;-88
2022/03/24 00:45:42;;;;;;;;;;;8.60;77.00;9.00;100618.00;;;;347472;28;83357;-88
2022/03/24 00:45:54;;;;;;;;;;;8.50;77.20;9.10;100615.00;;;;346993;28;88810;-87
2022/03/24 00:46:06;;;;;;;;;;;8.50;77.10;9.10;100620.00;;;;347438;28;83409;-88
2022/03/24 00:46:21;;;;;;;;;;;8.60;77.20;9.10;100619.00;;;;347070;28;90488;-88
2022/03/24 00:46:33;;;;;;;;;;;8.50;77.20;9.20;100616.00;;;;347438;28;82494;-87
2022/03/24 00:46:45;;;;;;;;;;;8.50;77.10;9.20;100620.00;;;;345527;28;92362;-87
2022/03/24 00:46:57;;;;;;;;;;;8.60;77.20;9.00;100611.00;;;;348584;27;83558;-87
2022/03/24 00:47:10;;;;;;;;;;;8.60;77.90;8.80;100612.00;;;;345746;28;88170;-87
2022/03/24 00:47:21;;;;;;;;;;;8.50;78.00;8.90;100610.00;;;;344149;28;83639;-88
2022/03/24 00:47:34;;;;;;;;;;;8.50;78.00;9.00;100615.00;;;;346523;28;89453;-87
2022/03/24 00:47:51;;;;;;;;;;;8.50;77.90;9.10;100617.00;;;;346135;28;83488;-87
2022/03/24 00:48:04;;;;;;;;;;;8.50;77.80;9.10;100620.00;;;;346959;28;91713;-87
2022/03/24 00:48:16;;;;;;;;;;;8.50;77.70;9.20;100614.00;;;;347381;28;83446;-88
2022/03/24 00:48:28;;;;;;;;;;;8.60;77.90;9.20;100613.00;;;;345748;28;88731;-88
2022/03/24 00:48:40;;;;;;;;;;;8.60;77.90;9.20;100613.00;;;;345985;28;83293;-88
2022/03/24 00:48:52;;;;;;;;;;;8.60;78.10;9.00;100614.00;;;;343933;28;92585;-88
2022/03/24 00:49:04;;;;;;;;;;;8.60;78.20;9.00;100613.00;;;;343330;28;83306;-88
2022/03/24 00:49:16;;;;;;;;;;;8.60;78.40;9.00;100618.00;;;;348526;27;88709;-87
2022/03/24 00:49:28;;;;;;;;;;;8.50;78.50;9.10;100607.00;;;;347390;28;82611;-87
2022/03/24 00:49:40;;;;;;;;;;;8.50;78.10;9.20;100616.00;;;;349943;27;91491;-87
2022/03/24 00:49:52;;;;;;;;;;;8.50;77.80;9.20;100616.00;;;;348856;27;83370;-88
2022/03/24 00:50:05;;;;;;;;;;;8.50;77.90;9.20;100618.00;;;;348376;27;91331;-88
2022/03/24 00:50:16;;;;;;;;;;;8.50;77.90;9.30;100611.00;;;;345749;28;83896;-88
2022/03/24 00:50:28;;;;;;;;;;;8.50;77.90;9.20;100614.00;;;;345460;28;90420;-88
2022/03/24 00:50:40;;;;;;;;;;;8.50;77.80;9.20;100611.00;;;;347325;28;83490;-87
2022/03/24 00:50:52;;;;;;;;;;;8.60;77.80;9.20;100619.00;;;;347030;28;92283;-87
2022/03/24 00:51:05;;;;;;;;;;;8.50;77.60;9.10;100609.00;;;;348781;27;83473;-87
2022/03/24 00:51:18;;;;;;;;;;;8.60;77.70;9.10;100612.00;;;;346800;28;92048;-87
2022/03/24 00:51:30;;;;;;;;;;;8.60;77.50;9.10;100613.00;;;;346093;28;83432;-87
2022/03/24 00:51:42;;;;;;;;;;;8.50;77.60;9.10;100612.00;;;;345689;28;92636;-87
2022/03/24 00:51:54;;;;;;;;;;;8.50;77.80;9.10;100607.00;;;;347101;28;83443;-87
2022/03/24 00:52:06;;;;;;;;;;;8.50;77.90;9.00;100616.00;;;;345616;28;91252;-87
2022/03/24 00:52:18;;;;;;;;;;;8.50;78.00;8.90;100610.00;;;;344716;28;83390;-88
2022/03/24 00:52:30;;;;;;;;;;;8.50;77.90;8.90;100618.00;;;;345645;28;92256;-88
2022/03/24 00:52:42;;;;;;;;;;;8.50;78.20;8.90;100614.00;;;;346101;28;83433;-88
2022/03/24 00:52:55;;;;;;;;;;;8.50;78.60;8.80;100609.00;;;;346962;28;90556;-88
2022/03/24 00:53:08;;;;;;;;;;;8.50;78.70;8.80;100614.00;;;;347577;28;83397;-88
2022/03/24 00:53:20;;;;;;;;;;;8.50;78.50;8.90;100611.00;;;;347696;27;88126;-87
2022/03/24 00:53:32;;;;;;;;;;;8.50;78.30;8.90;100606.00;;;;347421;28;83405;-87
2022/03/24 00:53:43;;;;;;;;;;;8.50;78.10;8.80;100611.00;;;;345567;28;92400;-88
2022/03/24 00:53:55;;;;;;;;;;;8.50;78.60;8.80;100607.00;;;;346126;28;83362;-88
2022/03/24 00:54:07;;;;;;;;;;;8.40;78.60;8.80;100604.00;;;;347056;28;88691;-87
2022/03/24 00:54:19;;;;;;;;;;;8.40;78.50;8.80;100607.00;;;;347228;28;82526;-87
2022/03/24 00:54:31;;;;;;;;;;;8.50;78.10;8.90;100612.00;;;;345606;28;91807;-87
2022/03/24 00:54:43;;;;;;;;;;;8.40;77.90;8.90;100611.00;;;;347453;28;83364;-87
2022/03/24 00:54:55;;;;;;;;;;;8.40;77.90;8.90;100615.00;;;;348429;27;88985;-87
2022/03/24 00:55:15;;;;;;;;;;;8.40;78.10;8.90;100614.00;;;;348900;27;83368;-87
2022/03/24 00:55:27;;;;;;;;;;;8.40;77.80;8.80;100604.00;;;;345615;28;90797;-87
2022/03/24 00:55:39;;;;;;;;;;;8.40;78.70;8.80;100615.00;;;;346059;28;82491;-87
2022/03/24 00:55:51;;;;;;;;;;;8.40;78.50;8.80;100608.00;;;;348513;27;88800;-88
2022/03/24 00:56:04;;;;;;;;;;;8.40;78.60;8.90;100613.00;;;;347425;28;83614;-87
2022/03/24 00:56:17;;;;;;;;;;;8.40;78.40;8.80;100609.00;;;;345534;28;91107;-87
2022/03/24 00:56:29;;;;;;;;;;;8.40;78.50;8.80;100612.00;;;;345961;28;83568;-88
2022/03/24 00:56:40;;;;;;;;;;;8.40;78.50;8.90;100612.00;;;;347028;27;88996;-87
2022/03/24 00:56:52;;;;;;;;;;;8.40;78.30;8.90;100615.00;;;;347432;28;83618;-88
2022/03/24 00:57:04;;;;;;;;;;;8.40;78.50;8.90;100614.00;;;;344180;28;91735;-87
2022/03/24 00:57:16;;;;;;;;;;;8.40;78.70;8.80;100611.00;;;;347356;28;83412;-87
2022/03/24 00:57:28;;;;;;;;;;;8.40;78.70;8.80;100609.00;;;;345605;28;91643;-88
2022/03/24 00:57:40;;;;;;;;;;;8.40;79.20;8.80;100614.00;;;;347467;28;82407;-88
2022/03/24 00:57:55;;;;;;;;;;;8.30;79.20;8.70;100608.00;;;;346802;28;91482;-87
2022/03/24 00:58:07;;;;;;;;;;;8.40;78.90;8.70;100611.00;;;;347351;28;83582;-87
2022/03/24 00:58:19;;;;;;;;;;;8.30;79.10;8.70;100613.00;;;;347045;28;91746;-88
2022/03/24 00:58:30;;;;;;;;;;;8.30;79.30;8.60;100609.00;;;;348938;27;83339;-87
2022/03/24 00:58:42;;;;;;;;;;;8.30;79.20;8.60;100608.00;;;;348346;27;91155;-87
2022/03/24 00:58:55;;;;;;;;;;;8.30;79.40;8.60;100612.00;;;;348901;27;82473;-87
2022/03/24 00:59:06;;;;;;;;;;;8.30;79.30;8.60;100597.00;;;;346929;28;91734;-88
2022/03/24 00:59:18;;;;;;;;;;;8.30;79.30;8.60;100601.00;;;;348445;27;82688;-88
2022/03/24 00:59:30;;;;;;;;;;;8.30;79.30;8.70;100605.00;;;;345650;28;91651;-87
2022/03/24 00:59:42;;;;;;;;;;;8.30;79.00;8.70;100610.00;;;;346057;28;83529;-87
2022/03/24 00:59:53;;;;;;;;;;;8.30;78.50;8.70;100612.00;;;;345588;28;91592;-87
2022/03/24 01:00:06;;;;;;;;;;;8.30;78.40;8.70;100616.00;;;;344590;28;82745;-87
2022/03/24 01:00:20;;;;;;;;;;;8.30;79.30;8.70;100603.00;;;;345955;28;92678;-87
2022/03/24 01:00:32;;;;;;;;;;;8.30;79.60;8.70;100609.00;;;;346200;28;82254;-88
2022/03/24 01:00:44;;;;;;;;;;;8.20;78.80;8.80;100607.00;;;;347043;28;91494;-87
2022/03/24 01:00:56;;;;;;;;;;;8.20;78.30;8.70;100613.00;;;;346155;28;83445;-88
2022/03/24 01:01:12;;;;;;;;;;;8.30;78.20;8.80;100610.00;;;;344042;28;91399;-87